createdAt,value
2019-01-30T00:02:07.644Z,71.77
2019-01-30T00:04:36.751Z,71.05
2019-01-30T00:07:05.950Z,71.17
2019-01-30T00:09:35.100Z,71.20
2019-01-30T00:12:04.514Z,71.39
2019-01-30T00:14:33.646Z,71.25
2019-01-30T00:17:02.822Z,70.94
2019-01-30T00:19:31.939Z,71.05
2019-01-30T00:22:01.161Z,70.69
2019-01-30T00:24:30.294Z,70.87
2019-01-30T00:26:59.431Z,70.92
2019-01-30T00:29:28.625Z,70.61
2019-01-30T00:31:57.786Z,70.63
2019-01-30T00:34:26.922Z,70.57
2019-01-30T00:36:56.088Z,70.48
2019-01-30T00:39:25.260Z,70.67
2019-01-30T00:41:54.434Z,70.56
2019-01-30T00:44:23.521Z,70.67
2019-01-30T00:46:52.676Z,70.72
2019-01-30T00:49:21.835Z,71.07
2019-01-30T00:51:50.954Z,70.80
2019-01-30T00:54:20.095Z,70.76
2019-01-30T00:56:49.243Z,70.94
2019-01-30T00:59:18.434Z,71.51
2019-01-30T01:01:47.548Z,71.73
2019-01-30T01:04:16.708Z,71.56
2019-01-30T01:06:45.838Z,71.66
2019-01-30T01:09:15.145Z,71.89
2019-01-30T01:11:44.243Z,71.71
2019-01-30T01:14:13.564Z,72.20
2019-01-30T01:16:42.728Z,72.26
2019-01-30T01:19:11.827Z,72.36
2019-01-30T01:21:41.031Z,72.40
2019-01-30T01:24:10.123Z,72.20
2019-01-30T01:26:39.430Z,72.35
2019-01-30T01:29:08.556Z,72.72
2019-01-30T01:31:37.725Z,72.64
2019-01-30T01:34:07.046Z,72.83
2019-01-30T01:36:36.286Z,73.21
2019-01-30T01:39:07.970Z,73.59
2019-01-30T01:41:37.117Z,73.99
2019-01-30T01:44:06.231Z,74.66
2019-01-30T01:46:35.483Z,75.25
2019-01-30T01:49:04.759Z,75.28
2019-01-30T01:51:33.924Z,75.67
2019-01-30T01:54:03.062Z,76.14
2019-01-30T01:56:32.231Z,76.37
2019-01-30T01:59:01.397Z,76.66
2019-01-30T02:01:30.616Z,77.45
2019-01-30T02:03:59.789Z,77.84
2019-01-30T02:06:29.046Z,77.29
2019-01-30T02:08:58.236Z,77.10
2019-01-30T02:11:27.441Z,77.13
2019-01-30T02:13:56.629Z,77.26
2019-01-30T02:16:25.823Z,77.74
2019-01-30T02:18:54.961Z,78.02
2019-01-30T02:21:24.585Z,78.00
2019-01-30T02:23:53.771Z,77.98
2019-01-30T02:26:22.924Z,78.05
2019-01-30T02:28:52.070Z,77.44
2019-01-30T02:31:21.310Z,77.92
2019-01-30T02:33:50.472Z,77.87
2019-01-30T02:36:19.636Z,77.87
2019-01-30T02:38:48.856Z,77.93
2019-01-30T02:41:17.985Z,77.59
2019-01-30T02:43:49.800Z,78.00
2019-01-30T02:46:18.894Z,78.61
2019-01-30T02:48:48.214Z,78.84
2019-01-30T02:51:17.345Z,78.00
2019-01-30T02:53:46.446Z,78.16
2019-01-30T02:56:15.689Z,78.34
2019-01-30T02:58:44.851Z,78.63
2019-01-30T03:01:14.012Z,78.56
2019-01-30T03:03:43.220Z,78.36
2019-01-30T03:06:12.371Z,78.19
2019-01-30T03:08:41.794Z,77.71
2019-01-30T03:11:11.190Z,78.00
2019-01-30T03:13:40.381Z,77.92
2019-01-30T03:16:09.586Z,77.89
2019-01-30T03:18:38.796Z,77.98
2019-01-30T03:21:07.956Z,78.00
2019-01-30T03:23:37.204Z,78.19
2019-01-30T03:26:06.319Z,78.76
2019-01-30T03:28:35.445Z,78.21
2019-01-30T03:31:16.928Z,78.37
2019-01-30T03:33:35.475Z,78.36
2019-01-30T03:36:04.694Z,79.20
2019-01-30T03:38:33.941Z,78.99
2019-01-30T03:41:03.065Z,79.14
2019-01-30T03:43:32.437Z,79.51
2019-01-30T03:46:01.744Z,79.24
2019-01-30T03:48:30.923Z,79.62
2019-01-30T03:51:00.096Z,79.52
2019-01-30T03:53:29.298Z,79.19
2019-01-30T03:55:58.461Z,79.44
2019-01-30T03:58:27.594Z,78.81
2019-01-30T04:00:56.692Z,78.72
2019-01-30T04:03:25.854Z,78.49
2019-01-30T04:05:55.176Z,78.17
2019-01-30T04:08:24.407Z,78.34
2019-01-30T04:10:53.470Z,77.83
2019-01-30T04:13:22.821Z,78.16
2019-01-30T04:15:51.922Z,78.22
2019-01-30T04:18:21.067Z,77.97
2019-01-30T04:20:50.205Z,78.49
2019-01-30T04:23:19.356Z,78.15
2019-01-30T04:25:48.743Z,78.26
2019-01-30T04:28:18.007Z,77.16
2019-01-30T04:30:47.264Z,77.37
2019-01-30T04:33:16.604Z,77.92
2019-01-30T04:35:45.961Z,77.46
2019-01-30T04:38:15.268Z,77.23
2019-01-30T04:40:44.521Z,76.89
2019-01-30T04:43:13.656Z,76.89
2019-01-30T04:45:42.799Z,77.17
2019-01-30T04:48:12.079Z,77.31
2019-01-30T04:50:41.455Z,76.87
2019-01-30T04:53:11.985Z,76.58
2019-01-30T04:55:41.081Z,76.44
2019-01-30T04:58:10.348Z,76.53
2019-01-30T05:00:39.575Z,76.95
2019-01-30T05:03:08.680Z,76.30
2019-01-30T05:05:39.435Z,76.75
2019-01-30T05:08:08.695Z,76.37
2019-01-30T05:10:37.809Z,76.40
2019-01-30T05:13:07.059Z,76.50
2019-01-30T05:15:36.241Z,76.55
2019-01-30T05:18:06.765Z,76.68
2019-01-30T05:20:35.978Z,75.59
2019-01-30T05:23:05.179Z,75.60
2019-01-30T05:25:37.290Z,76.05
2019-01-30T05:28:06.701Z,76.30
2019-01-30T05:30:36.301Z,76.04
2019-01-30T05:33:05.867Z,75.93
2019-01-30T05:36:11.840Z,75.91
2019-01-30T05:38:41.267Z,76.12
2019-01-30T05:41:10.670Z,76.16
2019-01-30T05:43:42.506Z,76.15
2019-01-30T05:46:11.077Z,75.98
2019-01-30T05:48:40.389Z,75.56
2019-01-30T05:51:09.816Z,75.72
2019-01-30T05:53:39.281Z,75.99
2019-01-30T05:56:08.626Z,75.76
2019-01-30T05:58:39.374Z,75.40
2019-01-30T06:01:08.826Z,75.20
2019-01-30T06:03:44.119Z,75.17
2019-01-30T06:06:15.318Z,75.74
2019-01-30T06:08:42.299Z,75.15
2019-01-30T06:11:18.753Z,74.67
2019-01-30T06:13:45.300Z,74.98
2019-01-30T06:16:18.505Z,74.89
2019-01-30T06:18:49.787Z,74.57
2019-01-30T06:21:22.277Z,74.37
2019-01-30T06:23:51.962Z,74.49
2019-01-30T06:26:26.100Z,74.74
2019-01-30T06:28:58.263Z,74.82
2019-01-30T06:31:27.658Z,74.69
2019-01-30T06:34:03.301Z,74.76
2019-01-30T06:36:28.258Z,74.57
2019-01-30T06:38:57.857Z,74.60
2019-01-30T06:41:41.702Z,75.08
2019-01-30T06:44:00.410Z,74.31
2019-01-30T06:46:31.490Z,74.47
2019-01-30T06:49:02.855Z,74.19
2019-01-30T06:51:31.927Z,74.53
2019-01-30T06:54:01.238Z,74.55
2019-01-30T06:56:30.490Z,74.43
2019-01-30T06:58:59.655Z,74.89
2019-01-30T07:01:28.836Z,74.16
2019-01-30T07:03:59.363Z,74.29
2019-01-30T07:06:28.548Z,74.66
2019-01-30T07:08:57.758Z,74.42
2019-01-30T07:11:26.852Z,74.68
2019-01-30T07:13:56.024Z,74.61
2019-01-30T07:16:25.105Z,74.53
2019-01-30T07:18:54.208Z,74.77
2019-01-30T07:21:23.379Z,74.96
2019-01-30T07:23:52.702Z,74.85
2019-01-30T07:26:21.833Z,74.73
2019-01-30T07:28:50.996Z,74.75
2019-01-30T07:31:20.131Z,75.04
2019-01-30T07:33:49.218Z,75.09
2019-01-30T07:36:18.399Z,74.98
2019-01-30T07:38:47.450Z,74.63
2019-01-30T07:41:16.610Z,74.89
2019-01-30T07:43:45.696Z,74.40
2019-01-30T07:46:14.881Z,74.58
2019-01-30T07:48:43.968Z,74.67
2019-01-30T07:51:15.707Z,74.64
2019-01-30T07:53:43.898Z,75.06
2019-01-30T07:56:13.028Z,74.35
2019-01-30T07:58:42.176Z,74.37
2019-01-30T08:01:11.405Z,74.46
2019-01-30T08:03:40.573Z,74.02
2019-01-30T08:06:09.744Z,74.41
2019-01-30T08:08:38.855Z,74.33
2019-01-30T08:11:09.268Z,74.09
2019-01-30T08:13:38.314Z,74.29
2019-01-30T08:16:07.376Z,74.37
2019-01-30T08:18:36.503Z,74.48
2019-01-30T08:21:05.639Z,74.45
2019-01-30T08:23:34.975Z,73.83
2019-01-30T08:26:04.280Z,73.95
2019-01-30T08:28:33.476Z,73.95
2019-01-30T08:31:03.062Z,73.73
2019-01-30T08:33:32.154Z,73.77
2019-01-30T08:36:01.277Z,74.17
2019-01-30T08:38:30.407Z,73.75
2019-01-30T08:40:59.507Z,73.83
2019-01-30T08:43:28.661Z,73.48
2019-01-30T08:45:57.803Z,73.64
2019-01-30T08:48:28.523Z,73.45
2019-01-30T08:50:57.805Z,73.33
2019-01-30T08:53:26.934Z,72.51
2019-01-30T08:55:56.059Z,72.74
2019-01-30T08:58:25.178Z,72.96
2019-01-30T09:00:54.299Z,72.54
2019-01-30T09:03:23.466Z,72.56
2019-01-30T09:05:52.599Z,72.44
2019-01-30T09:08:21.748Z,71.98
2019-01-30T09:10:50.851Z,72.41
2019-01-30T09:13:20.008Z,72.41
2019-01-30T09:15:49.270Z,71.97
2019-01-30T09:18:18.390Z,72.14
2019-01-30T09:20:47.631Z,71.80
2019-01-30T09:23:16.752Z,71.19
2019-01-30T09:25:45.977Z,72.38
2019-01-30T09:28:15.101Z,73.10
2019-01-30T09:30:44.320Z,74.61
2019-01-30T09:33:13.485Z,75.06
2019-01-30T09:35:42.671Z,75.81
2019-01-30T09:38:11.813Z,77.32
2019-01-30T09:40:41.033Z,77.64
2019-01-30T09:43:10.241Z,78.93
2019-01-30T09:45:39.357Z,79.69
2019-01-30T09:48:08.626Z,79.89
2019-01-30T09:50:37.799Z,80.67
2019-01-30T09:53:06.897Z,81.10
2019-01-30T09:55:36.036Z,81.15
2019-01-30T09:58:05.144Z,81.48
2019-01-30T10:00:36.251Z,82.32
2019-01-30T10:03:05.345Z,82.83
2019-01-30T10:05:34.523Z,83.08
2019-01-30T10:08:03.667Z,82.60
2019-01-30T10:10:34.672Z,83.29
2019-01-30T10:13:03.939Z,83.03
2019-01-30T10:15:37.423Z,83.28
2019-01-30T10:18:06.890Z,83.00
2019-01-30T10:20:36.655Z,82.58
2019-01-30T10:23:05.949Z,82.56
2019-01-30T10:25:35.045Z,82.75
2019-01-30T10:28:04.280Z,82.45
2019-01-30T10:30:35.129Z,81.85
2019-01-30T10:33:04.226Z,82.25
2019-01-30T10:35:33.311Z,82.17
2019-01-30T10:38:02.427Z,81.52
2019-01-30T10:40:31.538Z,81.11
2019-01-30T10:43:00.679Z,80.29
2019-01-30T10:45:29.774Z,80.34
2019-01-30T10:47:58.879Z,79.20
2019-01-30T10:50:29.013Z,79.10
2019-01-30T10:52:58.201Z,79.49
2019-01-30T10:55:28.869Z,79.49
2019-01-30T10:57:59.586Z,79.38
2019-01-30T11:00:34.431Z,80.22
2019-01-30T11:03:03.611Z,78.73
2019-01-30T11:05:32.777Z,78.58
2019-01-30T11:08:01.957Z,79.24
2019-01-30T11:10:31.057Z,78.82
2019-01-30T11:13:00.253Z,79.02
2019-01-30T11:15:29.422Z,79.00
2019-01-30T11:17:58.604Z,79.72
2019-01-30T11:20:29.834Z,79.46
2019-01-30T11:22:59.142Z,80.07
2019-01-30T11:25:31.015Z,80.11
2019-01-30T11:28:00.230Z,79.85
2019-01-30T11:30:29.419Z,78.85
2019-01-30T11:32:58.620Z,78.39
2019-01-30T11:35:27.887Z,79.05
2019-01-30T11:37:57.266Z,79.02
2019-01-30T11:40:26.561Z,78.37
2019-01-30T11:42:55.888Z,78.75
2019-01-30T11:45:30.632Z,79.01
2019-01-30T11:48:01.516Z,78.37
2019-01-30T11:50:30.823Z,78.52
2019-01-30T11:53:00.106Z,79.41
2019-01-30T11:55:29.388Z,78.65
2019-01-30T11:57:58.808Z,78.33
2019-01-30T12:00:33.403Z,78.92
2019-01-30T12:03:06.251Z,78.74
2019-01-30T12:05:35.624Z,79.42
2019-01-30T12:08:07.289Z,78.51
2019-01-30T12:10:37.219Z,78.88
2019-01-30T12:13:06.407Z,78.67
2019-01-30T12:15:38.594Z,78.03
2019-01-30T12:18:08.015Z,79.48
2019-01-30T12:20:40.167Z,79.96
2019-01-30T12:23:09.417Z,79.75
2019-01-30T12:25:38.778Z,79.17
2019-01-30T12:28:08.097Z,80.02
2019-01-30T12:30:37.301Z,79.96
2019-01-30T12:33:08.597Z,79.10
2019-01-30T12:35:39.061Z,80.45
2019-01-30T12:38:08.313Z,79.50
2019-01-30T12:40:37.580Z,80.28
2019-01-30T12:43:06.929Z,80.59
2019-01-30T12:45:36.591Z,80.44
2019-01-30T12:48:06.194Z,80.49
2019-01-30T12:50:35.445Z,80.00
2019-01-30T12:53:06.344Z,80.38
2019-01-30T12:55:35.690Z,80.33
2019-01-30T12:58:04.901Z,80.64
2019-01-30T13:00:38.796Z,80.69
2019-01-30T13:03:07.404Z,80.30
2019-01-30T13:05:36.583Z,81.14
2019-01-30T13:08:09.010Z,81.60
2019-01-30T13:10:38.209Z,81.01
2019-01-30T13:13:07.410Z,81.13
2019-01-30T13:15:36.692Z,81.42
2019-01-30T13:18:17.551Z,81.31
2019-01-30T13:20:39.786Z,80.90
2019-01-30T13:23:08.616Z,80.71
2019-01-30T13:25:39.028Z,81.27
2019-01-30T13:28:08.271Z,81.69
2019-01-30T13:30:43.628Z,81.25
2019-01-30T13:33:12.153Z,81.46
2019-01-30T13:35:42.625Z,81.60
2019-01-30T13:38:11.961Z,81.81
2019-01-30T13:40:43.182Z,81.20
2019-01-30T13:43:12.383Z,81.05
2019-01-30T13:45:41.484Z,81.51
2019-01-30T13:48:15.714Z,81.27
2019-01-30T13:50:44.947Z,81.75
2019-01-30T13:53:14.479Z,81.58
2019-01-30T13:55:45.211Z,82.33
2019-01-30T13:58:14.309Z,80.81
2019-01-30T14:00:43.550Z,81.49
2019-01-30T14:03:12.876Z,82.01
2019-01-30T14:05:42.085Z,81.42
2019-01-30T14:08:12.696Z,83.47
2019-01-30T14:10:41.899Z,82.97
2019-01-30T14:13:11.173Z,83.26
2019-01-30T14:15:41.572Z,83.53
2019-01-30T14:18:15.242Z,83.38
2019-01-30T14:20:41.686Z,82.95
2019-01-30T14:23:10.888Z,82.29
2019-01-30T14:25:40.157Z,81.34
2019-01-30T14:28:09.381Z,82.08
2019-01-30T14:30:41.451Z,82.30
2019-01-30T14:33:10.645Z,82.46
2019-01-30T14:35:46.506Z,83.13
2019-01-30T14:38:15.701Z,83.46
2019-01-30T14:40:44.977Z,84.04
2019-01-30T14:43:14.200Z,83.63
2019-01-30T14:46:06.712Z,83.79
2019-01-30T14:48:37.226Z,83.86
2019-01-30T14:51:32.615Z,84.72
2019-01-30T14:54:03.314Z,85.26
2019-01-30T14:56:33.048Z,85.09
2019-01-30T14:59:03.830Z,85.08
2019-01-30T15:02:20.440Z,85.53
2019-01-30T15:04:49.781Z,85.47
2019-01-30T15:07:47.297Z,85.15
2019-01-30T15:10:44.733Z,84.67
2019-01-30T15:13:12.859Z,85.44
2019-01-30T15:16:36.281Z,85.83
2019-01-30T15:19:27.503Z,86.12
2019-01-30T15:22:00.857Z,85.51
2019-01-30T15:24:34.286Z,84.90
2019-01-30T15:27:36.665Z,85.85
2019-01-30T15:30:57.285Z,85.57
2019-01-30T15:34:58.291Z,85.44
2019-01-30T15:36:42.517Z,86.16
2019-01-30T15:39:23.168Z,86.54
2019-01-30T15:41:50.143Z,86.38
2019-01-30T15:44:19.544Z,85.85
2019-01-30T15:46:51.583Z,86.07
2019-01-30T15:49:26.192Z,86.51
2019-01-30T15:52:26.995Z,86.23
2019-01-30T15:55:00.676Z,86.25
2019-01-30T16:01:36.965Z,86.56
2019-01-30T16:04:48.215Z,86.56
2019-01-30T16:07:24.883Z,86.56
2019-01-30T16:09:56.027Z,86.36
2019-01-30T16:12:28.597Z,85.98
2019-01-30T16:15:03.498Z,85.94
2019-01-30T16:17:34.787Z,86.10
2019-01-30T16:20:03.890Z,85.67
2019-01-30T16:22:40.612Z,85.64
2019-01-30T16:25:09.970Z,86.00
2019-01-30T16:27:44.586Z,86.01
2019-01-30T16:30:18.915Z,86.16
2019-01-30T16:32:50.544Z,86.13
2019-01-30T16:35:23.988Z,86.31
2019-01-30T16:37:53.339Z,86.32
2019-01-30T16:40:24.067Z,86.28
2019-01-30T16:42:57.471Z,86.02
2019-01-30T16:45:30.922Z,85.96
2019-01-30T16:48:00.504Z,86.09
2019-01-30T16:50:46.819Z,86.31
2019-01-30T16:53:50.688Z,86.51
2019-01-30T16:57:12.644Z,86.37
2019-01-30T16:59:34.553Z,86.35
2019-01-30T17:02:27.408Z,86.29
2019-01-30T17:05:11.350Z,85.99
2019-01-30T17:12:49.733Z,86.72
2019-01-30T17:18:39.074Z,87.10
2019-01-30T17:21:20.654Z,86.99
2019-01-30T17:23:59.602Z,86.68
2019-01-30T17:27:48.556Z,86.87
2019-01-30T17:29:57.566Z,86.54
2019-01-30T17:36:17.922Z,86.58
2019-01-30T17:38:44.618Z,86.75
2019-01-30T17:42:21.884Z,86.72
2019-01-30T17:44:06.890Z,86.73
2019-01-30T17:47:13.729Z,86.70
2019-01-30T17:49:43.221Z,86.52
2019-01-30T17:52:32.774Z,86.32
2019-01-30T17:55:16.271Z,86.33
2019-01-30T17:57:43.112Z,86.57
2019-01-30T18:00:25.934Z,86.44
2019-01-30T18:02:55.368Z,86.16
2019-01-30T18:05:24.683Z,86.40
2019-01-30T18:07:54.030Z,86.69
2019-01-30T18:11:05.878Z,87.21
2019-01-30T18:17:27.244Z,86.66
2019-01-30T18:19:46.172Z,86.46
2019-01-30T18:23:10.651Z,86.58
2019-01-30T18:25:49.018Z,86.97
2019-01-30T18:29:20.184Z,87.05
2019-01-30T18:31:29.703Z,86.55
2019-01-30T18:34:36.201Z,86.80
2019-01-30T18:37:02.830Z,87.24
2019-01-30T18:39:32.158Z,87.19
2019-01-30T18:42:01.464Z,87.10
2019-01-30T18:44:34.398Z,86.84
2019-01-30T18:47:26.696Z,86.99
2019-01-30T18:49:56.073Z,87.33
2019-01-30T18:52:27.158Z,87.48
2019-01-30T18:54:56.712Z,87.37
2019-01-30T18:57:26.088Z,87.12
2019-01-30T18:59:55.359Z,87.37
2019-01-30T19:02:26.463Z,87.12
2019-01-30T19:04:55.784Z,87.31
2019-01-30T19:07:25.005Z,87.52
2019-01-30T19:09:54.260Z,87.47
2019-01-30T19:12:23.683Z,87.55
2019-01-30T19:14:55.892Z,87.70
2019-01-30T19:17:30.222Z,87.71
2019-01-30T19:20:03.889Z,86.86
2019-01-30T19:28:16.061Z,87.11
2019-01-30T19:30:45.191Z,87.30
2019-01-30T19:33:15.641Z,87.50
2019-01-30T19:35:46.976Z,87.72
2019-01-30T19:38:16.305Z,87.67
2019-01-30T19:40:45.509Z,87.96
2019-01-30T19:43:14.773Z,88.13
2019-01-30T19:45:43.946Z,87.85
2019-01-30T19:48:13.118Z,87.63
2019-01-30T19:50:42.312Z,87.63
2019-01-30T19:53:11.567Z,87.66
2019-01-30T19:55:40.748Z,87.80
2019-01-30T19:58:12.223Z,87.80
2019-01-30T20:00:48.964Z,87.82
2019-01-30T20:03:24.239Z,87.68
2019-01-30T20:05:53.428Z,87.55
2019-01-30T20:08:23.533Z,87.55
2019-01-30T20:10:52.665Z,87.81
2019-01-30T20:13:21.888Z,88.01
2019-01-30T20:15:51.088Z,88.10
2019-01-30T20:18:20.228Z,87.97
2019-01-30T20:20:49.517Z,87.96
2019-01-30T20:23:20.154Z,87.78
2019-01-30T20:25:49.478Z,87.82
2019-01-30T20:28:19.720Z,87.86
2019-01-30T20:30:48.888Z,87.58
2019-01-30T20:33:18.034Z,87.60
2019-01-30T20:35:47.493Z,87.65
2019-01-30T20:38:16.626Z,87.57
2019-01-30T20:40:45.875Z,87.48
2019-01-30T20:43:15.021Z,87.51
2019-01-30T20:45:44.219Z,87.87
2019-01-30T20:48:13.388Z,87.49
2019-01-30T20:50:59.362Z,87.56
2019-01-30T20:53:28.544Z,87.59
2019-01-30T20:55:57.751Z,87.79
2019-01-30T20:58:26.884Z,87.75
2019-01-30T21:00:56.047Z,87.39
2019-01-30T21:03:26.214Z,87.32
2019-01-30T21:05:55.391Z,87.68
2019-01-30T21:08:24.520Z,87.58
2019-01-30T21:10:53.710Z,87.46
2019-01-30T21:13:22.845Z,87.60
2019-01-30T21:15:53.081Z,87.39
2019-01-30T21:18:22.285Z,87.45
2019-01-30T21:20:51.474Z,87.44
2019-01-30T21:23:20.647Z,87.99
2019-01-30T21:25:50.150Z,87.74
2019-01-30T21:28:19.428Z,87.60
2019-01-30T21:30:48.675Z,87.47
2019-01-30T21:33:17.951Z,87.57
2019-01-30T21:35:47.240Z,87.68
2019-01-30T21:38:16.532Z,87.53
2019-01-30T21:40:45.733Z,87.60
2019-01-30T21:43:14.975Z,88.17
2019-01-30T21:45:49.955Z,87.99
2019-01-30T21:48:43.313Z,87.87
2019-01-30T21:50:51.665Z,87.63
2019-01-30T21:53:20.936Z,88.03
2019-01-30T21:55:50.074Z,88.08
2019-01-30T21:58:19.310Z,88.11
2019-01-30T22:00:48.449Z,87.89
2019-01-30T22:03:17.671Z,87.89
2019-01-30T22:05:46.871Z,87.83
2019-01-30T22:08:16.378Z,87.65
2019-01-30T22:10:50.151Z,87.49
2019-01-30T22:13:19.330Z,87.58
2019-01-30T22:15:48.480Z,87.33
2019-01-30T22:18:17.804Z,87.34
2019-01-30T22:20:46.991Z,87.34
2019-01-30T22:23:16.164Z,87.63
2019-01-30T22:25:45.319Z,87.76
2019-01-30T22:28:14.473Z,87.49
2019-01-30T22:30:43.669Z,87.71
2019-01-30T22:33:12.855Z,87.95
2019-01-30T22:35:42.019Z,87.95
2019-01-30T22:38:12.827Z,87.75
2019-01-30T22:40:42.208Z,88.04
2019-01-30T22:43:11.391Z,87.83
2019-01-30T22:45:40.541Z,88.00
2019-01-30T22:48:09.664Z,88.16
2019-01-30T22:50:38.832Z,88.40
2019-01-30T22:53:07.954Z,88.33
2019-01-30T22:55:37.072Z,88.51
2019-01-30T22:58:06.201Z,88.58
2019-01-30T23:01:04.827Z,88.82
2019-01-30T23:04:10.225Z,88.89
2019-01-30T23:07:05.516Z,88.99
2019-01-30T23:10:21.214Z,89.11
2019-01-30T23:13:37.543Z,89.14
2019-01-30T23:16:49.648Z,89.10
2019-01-30T23:19:39.484Z,89.10
2019-01-30T23:22:38.067Z,89.38
2019-01-30T23:25:51.168Z,88.94
2019-01-30T23:29:06.231Z,88.80
2019-01-30T23:31:50.142Z,88.96
2019-01-30T23:34:46.964Z,89.17
2019-01-30T23:37:49.681Z,88.96
2019-01-30T23:40:54.641Z,88.82
2019-01-30T23:43:37.953Z,88.94
2019-01-30T23:46:41.380Z,88.90
2019-01-30T23:49:31.842Z,89.02
2019-01-30T23:52:38.039Z,88.77
2019-01-30T23:55:42.727Z,89.03
2019-01-30T23:58:36.829Z,89.05
